Time;durP1;ratioP1;P1;durP2;ratioP2;P2;SDS_P1;SDS_P2;PMS_P1;PMS_P2;Temp;Humidity;BMP_temperature;BMP_pressure;BME280_temperature;BME280_humidity;BME280_pressure;Samples;Min_cycle;Max_cycle;Signal;HPM_P1;HPM_P2
2022/10/29 00:02:01;;;;;;;16.32;12.68;;;;;;;11.82;90.60;100933.77;3302599;84;20940;-74
2022/10/29 00:06:54;;;;;;;14.28;12.75;;;;;;;11.86;90.29;100937.30;3307363;84;21505;-75
2022/10/29 00:11:47;;;;;;;17.87;12.63;;;;;;;11.83;90.30;100936.39;3308034;84;21007;-75
2022/10/29 00:16:43;;;;;;;14.20;12.00;;;;;;;11.78;90.26;100940.66;3300500;84;21109;-75
2022/10/29 00:21:39;;;;;;;18.50;11.45;;;;;;;11.70;90.11;100930.56;3285998;84;20946;-75
2022/10/29 00:26:32;;;;;;;12.85;11.20;;;;;;;11.64;90.35;100927.44;3293015;83;20955;-74
2022/10/29 00:31:27;;;;;;;14.03;11.38;;;;;;;11.55;89.94;100920.75;3288916;84;21314;-75
2022/10/29 00:36:23;;;;;;;16.82;11.20;;;;;;;11.45;90.09;100911.06;3302031;83;21037;-74
2022/10/29 00:41:27;;;;;;;12.18;9.40;;;;;;;11.37;89.98;100910.91;3307331;84;21093;-74
2022/10/29 00:46:31;;;;;;;24.60;10.03;;;;;;;11.28;89.85;100909.46;3287793;85;20970;-74
2022/10/29 00:51:28;;;;;;;14.98;9.88;;;;;;;11.18;89.61;100907.58;3320817;84;21504;-75
2022/10/29 00:56:29;;;;;;;11.30;9.93;;;;;;;11.12;89.94;100910.92;3269122;84;20986;-74
2022/10/29 01:01:19;;;;;;;11.05;9.98;;;;;;;11.04;89.76;100902.98;3309657;84;21640;-75
2022/10/29 01:06:23;;;;;;;;;;;;;;;;;;;;;
2022/10/29 01:11:40;;;;;;;10.72;9.63;;;;;;;10.92;89.62;100898.86;3267926;85;21564;-75
2022/10/29 01:16:56;;;;;;;10.35;8.75;;;;;;;10.85;89.46;100885.28;3241557;86;21030;-75
2022/10/29 01:22:17;;;;;;;11.22;9.88;;;;;;;10.80;89.27;100883.02;3235733;87;21070;-75
2022/10/29 01:27:49;;;;;;;14.33;9.70;;;;;;;10.70;89.28;100879.81;3248217;86;21019;-74
2022/10/29 01:33:22;;;;;;;11.73;8.58;;;;;;;10.67;89.82;100878.88;3226899;87;20955;-75
2022/10/29 01:38:28;;;;;;;12.03;9.00;;;;;;;10.59;89.29;100880.48;3260158;86;21041;-74
2022/10/29 01:43:35;;;;;;;12.30;8.63;;;;;;;10.51;89.39;100888.97;3200843;88;21560;-74
2022/10/29 01:48:39;;;;;;;11.95;8.83;;;;;;;10.44;89.27;100890.55;3162936;88;21087;-73
2022/10/29 01:53:36;;;;;;;12.00;8.98;;;;;;;10.41;89.00;100886.59;3216119;87;21023;-73
2022/10/29 01:58:30;;;;;;;8.75;7.85;;;;;;;10.37;89.19;100884.78;3234888;86;21571;-74
2022/10/29 02:04:04;;;;;;;13.30;10.05;;;;;;;10.33;89.16;100878.64;3180013;87;21091;-73
2022/10/29 02:09:35;;;;;;;11.18;9.10;;;;;;;10.29;89.53;100868.58;3148691;88;21055;-74
2022/10/29 02:14:41;;;;;;;11.48;9.70;;;;;;;10.28;89.58;100874.63;3141400;89;22946;-73
2022/10/29 02:19:38;;;;;;;11.30;8.70;;;;;;;10.22;89.08;100878.81;3150162;89;21256;-73
2022/10/29 02:24:33;;;;;;;12.13;8.10;;;;;;;10.19;89.46;100874.41;3133593;88;20982;-74
2022/10/29 02:29:26;;;;;;;11.38;8.18;;;;;;;10.14;89.32;100866.97;3173277;88;21050;-73
2022/10/29 02:34:17;;;;;;;12.53;8.95;;;;;;;10.10;89.10;100866.44;3133663;88;21569;-73
2022/10/29 02:39:10;;;;;;;10.25;8.33;;;;;;;10.03;89.01;100859.35;3155252;88;21296;-73
2022/10/29 02:44:08;;;;;;;15.38;8.75;;;;;;;10.01;89.32;100853.25;3230647;85;21033;-74
2022/10/29 02:49:00;;;;;;;11.80;9.55;;;;;;;10.00;89.54;100835.93;3318796;84;21055;-73
2022/10/29 02:53:55;;;;;;;13.98;8.68;;;;;;;9.96;89.59;100832.79;3312678;84;20935;-73
2022/10/29 02:58:54;;;;;;;12.53;8.63;;;;;;;9.92;89.39;100823.63;3306867;85;20974;-74
2022/10/29 03:03:44;;;;;;;11.43;8.60;;;;;;;9.88;89.34;100819.22;3320573;85;21142;-74
2022/10/29 03:08:39;;;;;;;11.55;9.38;;;;;;;9.85;89.27;100811.36;3316630;84;21029;-73
2022/10/29 03:13:32;;;;;;;12.03;8.65;;;;;;;9.80;89.04;100810.41;3301214;85;21588;-74
2022/10/29 03:18:26;;;;;;;13.78;8.78;;;;;;;9.81;89.39;100805.65;3232924;85;21062;-73
2022/10/29 03:23:19;;;;;;;11.57;9.28;;;;;;;9.79;89.42;100808.64;3307146;85;21005;-73
2022/10/29 03:28:14;;;;;;;10.15;8.28;;;;;;;9.78;89.35;100808.17;3277548;85;20954;-73
2022/10/29 03:33:10;;;;;;;14.95;9.50;;;;;;;9.79;89.42;100800.85;3264337;85;20939;-74
2022/10/29 03:38:04;;;;;;;9.33;8.40;;;;;;;9.78;89.65;100789.13;3291975;85;21653;-73
2022/10/29 03:42:55;;;;;;;9.35;8.28;;;;;;;9.78;89.66;100782.20;3281096;84;20927;-73
2022/10/29 03:47:46;;;;;;;14.73;9.20;;;;;;;9.79;89.48;100775.31;3298125;84;21507;-73
2022/10/29 03:52:38;;;;;;;15.43;10.28;;;;;;;9.82;89.93;100780.16;3314351;84;21345;-74
2022/10/29 03:57:29;;;;;;;14.30;9.48;;;;;;;9.86;90.18;100776.77;3280299;84;20959;-74
2022/10/29 04:02:20;;;;;;;11.83;9.43;;;;;;;9.91;90.11;100774.28;3308870;83;21037;-73
2022/10/29 04:07:12;;;;;;;12.73;10.60;;;;;;;9.96;90.07;100782.14;3251514;84;21018;-73
2022/10/29 04:12:06;;;;;;;11.78;8.90;;;;;;;10.00;90.17;100785.28;3301994;84;21081;-73
2022/10/29 04:16:58;;;;;;;13.48;9.48;;;;;;;10.00;90.11;100797.84;3250753;84;22674;-73
2022/10/29 04:21:49;;;;;;;15.18;10.38;;;;;;;10.03;90.11;100804.80;3318496;84;21073;-74
2022/10/29 04:26:44;;;;;;;13.50;9.88;;;;;;;10.03;90.19;100797.01;3279641;84;21039;-74
2022/10/29 04:31:39;;;;;;;12.55;10.32;;;;;;;10.06;90.35;100797.08;3279350;85;20966;-74
2022/10/29 04:36:30;;;;;;;12.25;9.50;;;;;;;10.05;90.47;100794.91;3284021;84;21489;-74
2022/10/29 04:41:27;;;;;;;15.08;9.35;;;;;;;10.08;90.56;100782.39;3291739;84;21352;-73
2022/10/29 04:46:18;;;;;;;13.70;9.08;;;;;;;10.08;90.48;100779.80;3276014;85;21113;-73
2022/10/29 04:51:24;;;;;;;10.65;9.13;;;;;;;10.07;90.48;100776.77;3245011;85;21135;-74
2022/10/29 04:56:16;;;;;;;13.30;9.60;;;;;;;10.08;90.44;100781.09;3300539;83;20984;-73
2022/10/29 05:01:08;;;;;;;11.80;9.33;;;;;;;10.09;90.63;100768.58;3246936;84;21378;-74
2022/10/29 05:06:04;;;;;;;16.20;9.88;;;;;;;10.11;90.61;100778.14;3301883;84;22275;-74
2022/10/29 05:10:55;;;;;;;13.53;11.60;;;;;;;10.11;90.53;100791.12;3303767;84;21100;-73
2022/10/29 05:15:51;;;;;;;14.85;9.30;;;;;;;10.12;90.64;100784.20;3300429;84;21093;-73
2022/10/29 05:20:53;;;;;;;14.68;9.35;;;;;;;10.13;90.67;100784.66;3291029;85;21624;-74
2022/10/29 05:25:47;;;;;;;16.70;10.18;;;;;;;10.13;90.66;100784.66;3326262;83;21042;-73
2022/10/29 05:30:38;;;;;;;13.53;10.15;;;;;;;10.12;90.58;100797.19;3253091;84;21678;-73
2022/10/29 05:35:29;;;;;;;11.25;9.80;;;;;;;10.14;90.88;100800.72;3285706;84;21001;-73
2022/10/29 05:40:22;;;;;;;12.98;9.88;;;;;;;10.20;91.01;100810.36;3328077;84;20975;-74
2022/10/29 05:45:14;;;;;;;13.45;9.83;;;;;;;10.25;91.13;100814.80;3273585;84;21034;-74
2022/10/29 05:50:06;;;;;;;12.85;9.25;;;;;;;10.33;91.07;100816.70;3309587;84;21243;-74
2022/10/29 05:54:58;;;;;;;13.35;9.33;;;;;;;10.39;91.18;100815.50;3282902;85;22009;-73
2022/10/29 05:59:49;;;;;;;11.08;9.95;;;;;;;10.46;91.25;100816.08;3315124;83;20963;-73
2022/10/29 06:04:41;;;;;;;14.73;10.25;;;;;;;10.51;91.27;100814.88;3267974;84;21228;-73
2022/10/29 06:09:32;;;;;;;17.92;10.98;;;;;;;10.56;91.30;100808.91;3249084;84;21003;-73
2022/10/29 06:14:23;;;;;;;16.82;9.13;;;;;;;10.62;91.31;100809.04;3248605;83;21026;-73
2022/10/29 06:19:15;;;;;;;16.32;10.13;;;;;;;10.66;91.35;100809.53;3273469;83;22687;-72
2022/10/29 06:24:07;;;;;;;11.83;9.68;;;;;;;10.71;91.37;100806.13;3250778;83;21050;-73
2022/10/29 06:28:59;;;;;;;13.53;9.50;;;;;;;10.75;91.36;100805.33;3261251;85;21014;-73
2022/10/29 06:33:50;;;;;;;11.43;10.10;;;;;;;10.79;91.30;100814.53;3302875;83;21065;-73
2022/10/29 06:38:42;;;;;;;13.18;10.13;;;;;;;10.86;91.28;100809.88;3298293;83;21069;-73
2022/10/29 06:43:33;;;;;;;12.00;10.28;;;;;;;11.00;91.22;100802.32;3230523;84;21190;-73
2022/10/29 06:48:25;;;;;;;12.80;11.10;;;;;;;11.13;91.02;100818.14;3316476;83;21071;-74
2022/10/29 06:53:16;;;;;;;14.43;10.65;;;;;;;11.25;90.80;100806.19;3270043;83;21086;-73
2022/10/29 06:58:14;;;;;;;15.25;10.23;;;;;;;11.42;90.62;100813.37;3272433;83;21014;-73
2022/10/29 07:03:09;;;;;;;13.05;8.93;;;;;;;11.49;90.35;100814.35;3286588;83;21509;-73
2022/10/29 07:08:21;;;;;;;11.95;9.15;;;;;;;11.55;90.22;100815.73;3304035;84;21108;-76
2022/10/29 07:13:17;;;;;;;11.17;10.07;;;;;;;11.59;90.16;100821.45;3296793;83;20971;-73
2022/10/29 07:18:18;;;;;;;15.20;9.78;;;;;;;11.66;90.17;100835.41;3264624;84;20987;-73
2022/10/29 07:23:16;;;;;;;12.45;9.25;;;;;;;11.72;90.13;100836.39;3266328;83;21018;-73
2022/10/29 07:28:24;;;;;;;14.47;9.40;;;;;;;11.81;89.97;100824.78;3274328;84;20990;-74
2022/10/29 07:33:17;;;;;;;13.55;9.55;;;;;;;11.97;90.03;100814.17;3281183;83;21405;-74
2022/10/29 07:38:10;;;;;;;13.28;8.53;;;;;;;12.15;89.90;100794.42;3281115;83;21520;-73
2022/10/29 07:43:04;;;;;;;10.03;8.58;;;;;;;12.27;89.68;100797.17;3296149;83;21738;-73
2022/10/29 07:48:02;;;;;;;10.95;7.87;;;;;;;12.44;89.61;100796.47;3256381;83;21297;-74
2022/10/29 07:52:53;;;;;;;14.55;8.40;;;;;;;12.66;89.39;100791.03;3302779;83;20962;-74
2022/10/29 07:57:44;;;;;;;12.75;8.38;;;;;;;13.06;88.74;100800.54;3245863;83;20968;-73
2022/10/29 08:02:41;;;;;;;13.45;8.25;;;;;;;13.30;88.52;100800.70;3259709;83;21615;-74
2022/10/29 08:07:39;;;;;;;11.15;7.62;;;;;;;13.55;88.26;100793.06;3255545;83;20995;-74
2022/10/29 08:12:33;;;;;;;11.63;7.20;;;;;;;13.85;87.96;100786.27;3310220;83;21031;-75
2022/10/29 08:17:24;;;;;;;12.88;8.28;;;;;;;14.13;87.54;100797.72;3299674;84;20998;-74
2022/10/29 08:22:15;;;;;;;14.28;7.10;;;;;;;14.47;86.75;100793.89;3260303;84;21807;-74
2022/10/29 08:27:06;;;;;;;9.33;6.67;;;;;;;14.84;85.94;100802.70;3299394;84;21003;-73
2022/10/29 08:31:57;;;;;;;14.30;7.12;;;;;;;15.25;85.29;100802.25;3305658;85;21118;-73
2022/10/29 08:36:49;;;;;;;12.88;7.15;;;;;;;15.54;84.12;100783.88;3271545;84;21006;-74
2022/10/29 08:41:51;;;;;;;12.85;8.65;;;;;;;15.79;83.61;100786.44;3302465;84;21097;-73
2022/10/29 08:47:09;;;;;;;11.95;7.58;;;;;;;16.07;83.14;100781.09;3282892;85;21955;-74
2022/10/29 08:52:19;;;;;;;11.03;6.72;;;;;;;16.49;81.76;100789.60;3338107;83;21049;-74
2022/10/29 08:57:17;;;;;;;9.73;7.65;;;;;;;16.51;81.38;100785.24;3268529;85;21497;-73
2022/10/29 09:02:15;;;;;;;10.80;6.85;;;;;;;16.61;81.58;100789.52;3286245;84;20940;-73
2022/10/29 09:07:27;;;;;;;10.98;6.85;;;;;;;16.90;80.71;100798.97;3326996;85;21276;-74
2022/10/29 09:13:16;;;;;;;13.20;7.28;;;;;;;17.62;79.01;100795.69;3287020;85;21081;-73
2022/10/29 09:18:51;;;;;;;11.12;6.72;;;;;;;18.21;77.65;100790.63;3315256;85;21023;-75
2022/10/29 09:24:03;;;;;;;11.33;6.47;;;;;;;18.50;76.98;100805.14;3303335;84;20991;-74
2022/10/29 09:29:12;;;;;;;10.82;7.00;;;;;;;18.00;76.98;100808.00;3194078;88;21030;-74
2022/10/29 09:34:12;;;;;;;14.20;7.95;;;;;;;17.64;77.78;100800.94;3175989;88;21176;-74
2022/10/29 09:39:17;;;;;;;12.55;8.05;;;;;;;17.51;77.84;100803.69;3190749;88;21154;-74
2022/10/29 09:44:22;;;;;;;10.08;7.40;;;;;;;17.50;77.48;100795.81;3190159;88;21008;-74
2022/10/29 09:50:01;;;;;;;13.70;7.55;;;;;;;17.61;78.20;100790.44;3210108;88;21050;-74
2022/10/29 09:54:54;;;;;;;11.45;8.10;;;;;;;17.67;77.66;100782.05;3121954;89;20990;-74
2022/10/29 09:59:56;;;;;;;12.90;8.13;;;;;;;17.85;76.40;100769.16;3213820;87;21532;-74
2022/10/29 10:04:50;;;;;;;15.93;8.23;;;;;;;17.69;77.42;100778.95;3265805;84;22151;-74
2022/10/29 10:10:02;;;;;;;14.93;7.62;;;;;;;17.61;77.61;100793.08;3264782;84;20959;-74
2022/10/29 10:15:17;;;;;;;14.75;8.88;;;;;;;17.58;77.78;100803.61;3320357;84;21264;-74
2022/10/29 10:20:23;;;;;;;11.88;9.10;;;;;;;17.26;77.77;100829.76;3202222;86;21036;-74
2022/10/29 10:25:35;;;;;;;15.88;9.83;;;;;;;16.88;78.76;100820.44;3085770;90;21128;-74
2022/10/29 10:30:26;;;;;;;19.82;12.23;;;;;;;16.69;79.16;100819.23;3068920;90;21398;-74
2022/10/29 10:35:28;;;;;;;18.60;11.90;;;;;;;16.61;79.35;100810.52;2992635;91;21018;-74
2022/10/29 10:40:23;;;;;;;23.65;11.90;;;;;;;16.62;79.67;100791.28;3108878;89;21018;-74
2022/10/29 10:45:24;;;;;;;21.57;13.85;;;;;;;16.65;80.01;100805.70;3127362;89;21054;-74
2022/10/29 10:50:28;;;;;;;26.15;15.70;;;;;;;16.64;80.09;100814.90;3067296;91;21058;-74
2022/10/29 10:55:37;;;;;;;26.30;17.37;;;;;;;16.46;80.30;100829.00;3145995;86;21083;-74
2022/10/29 11:00:36;;;;;;;26.02;16.10;;;;;;;16.27;80.72;100843.51;3209763;84;21548;-74
2022/10/29 11:05:33;;;;;;;27.60;16.87;;;;;;;16.18;80.99;100850.11;3310761;84;21521;-74
2022/10/29 11:10:32;;;;;;;28.57;19.17;;;;;;;16.12;81.15;100848.39;3312070;84;21017;-74
2022/10/29 11:15:38;;;;;;;25.10;16.00;;;;;;;16.07;81.47;100857.16;3316958;84;21066;-74
2022/10/29 11:20:35;;;;;;;23.75;16.07;;;;;;;16.09;81.55;100844.91;3317687;84;21119;-74
2022/10/29 11:25:41;;;;;;;22.70;16.37;;;;;;;16.20;81.49;100832.61;3282260;84;21037;-75
2022/10/29 11:30:38;;;;;;;24.23;14.73;;;;;;;16.62;80.92;100816.67;3324286;84;21032;-74
2022/10/29 11:35:47;;;;;;;21.68;14.23;;;;;;;17.26;79.62;100814.89;3288845;84;20958;-74
2022/10/29 11:40:57;;;;;;;16.60;13.68;;;;;;;17.17;79.83;100831.16;3295678;84;20991;-74
2022/10/29 11:46:08;;;;;;;18.62;13.93;;;;;;;16.85;79.89;100827.05;3301559;83;22005;-74
2022/10/29 11:51:29;;;;;;;18.67;14.78;;;;;;;16.63;80.35;100838.94;3292016;85;21025;-75
2022/10/29 11:56:47;;;;;;;18.07;13.40;;;;;;;16.60;80.79;100842.92;3290774;85;21010;-74
2022/10/29 12:02:03;;;;;;;14.30;11.60;;;;;;;16.51;80.97;100841.67;3333787;84;20993;-74
2022/10/29 12:07:22;;;;;;;19.92;13.65;;;;;;;16.39;80.94;100856.57;3324013;85;21461;-74
2022/10/29 12:12:44;;;;;;;16.70;12.28;;;;;;;16.36;81.07;100843.48;3304922;85;22598;-74
2022/10/29 12:17:47;;;;;;;17.57;13.80;;;;;;;16.42;80.92;100841.69;3300025;84;21513;-74
2022/10/29 12:22:52;;;;;;;17.73;11.78;;;;;;;16.62;80.79;100833.73;3330202;84;21046;-74
2022/10/29 12:28:18;;;;;;;18.30;11.60;;;;;;;16.73;80.77;100820.95;3317231;84;21670;-74
2022/10/29 12:33:18;;;;;;;13.55;10.60;;;;;;;16.86;80.32;100826.15;3315952;84;20990;-74
2022/10/29 12:38:40;;;;;;;13.78;11.05;;;;;;;16.90;80.57;100821.30;3337485;84;21183;-74
2022/10/29 12:43:34;;;;;;;13.53;9.35;;;;;;;16.87;80.38;100817.41;3306435;84;21015;-74
2022/10/29 12:48:43;;;;;;;13.72;10.70;;;;;;;16.80;80.19;100815.67;3345774;83;21010;-74
2022/10/29 12:54:16;;;;;;;14.53;10.15;;;;;;;16.84;79.72;100805.15;3304549;84;21446;-75
2022/10/29 12:59:30;;;;;;;12.30;9.93;;;;;;;16.96;79.42;100823.89;3300995;85;21045;-74
2022/10/29 13:04:28;;;;;;;14.07;10.05;;;;;;;16.99;79.34;100833.08;3224257;84;20974;-74
2022/10/29 13:09:27;;;;;;;10.38;9.33;;;;;;;17.03;78.92;100824.73;3291078;85;22084;-74
2022/10/29 13:14:27;;;;;;;13.98;9.03;;;;;;;16.99;78.86;100818.62;3301302;85;20993;-74
2022/10/29 13:19:28;;;;;;;12.20;8.45;;;;;;;16.91;79.01;100815.17;3329782;84;20983;-74
2022/10/29 13:24:20;;;;;;;10.40;8.80;;;;;;;16.92;79.16;100827.44;3268555;85;20995;-74
2022/10/29 13:29:11;;;;;;;9.03;7.80;;;;;;;16.97;78.54;100819.05;3234088;84;22889;-74
2022/10/29 13:34:02;;;;;;;12.35;7.55;;;;;;;17.04;78.20;100809.38;3316651;84;20991;-74
2022/10/29 13:39:03;;;;;;;14.78;8.18;;;;;;;17.01;78.06;100817.27;3288093;84;20991;-74
2022/10/29 13:44:21;;;;;;;11.33;7.80;;;;;;;16.93;77.85;100825.22;3312620;84;21540;-73
2022/10/29 13:49:29;;;;;;;8.75;7.10;;;;;;;16.84;77.81;100829.23;3305835;84;21066;-74
2022/10/29 13:54:32;;;;;;;7.53;6.17;;;;;;;16.75;77.37;100819.17;3315599;84;21209;-74
2022/10/29 13:59:44;;;;;;;13.13;6.75;;;;;;;16.70;77.43;100822.27;3286700;84;21002;-74
2022/10/29 14:04:38;;;;;;;11.68;6.58;;;;;;;16.59;77.54;100825.41;3324550;84;21015;-74
2022/10/29 14:09:44;;;;;;;10.23;6.50;;;;;;;16.46;77.50;100827.24;3315512;84;21066;-74
2022/10/29 14:15:05;;;;;;;12.80;6.58;;;;;;;16.33;77.45;100829.06;3238580;85;20995;-74
2022/10/29 14:19:56;;;;;;;9.35;6.33;;;;;;;16.20;77.47;100837.86;3311382;84;21203;-74
2022/10/29 14:24:47;;;;;;;12.70;6.75;;;;;;;16.10;77.52;100834.86;3239213;85;20967;-75
2022/10/29 14:29:39;;;;;;;10.25;6.87;;;;;;;15.99;77.47;100831.83;3270464;85;21620;-74
2022/10/29 14:34:30;;;;;;;7.40;5.97;;;;;;;15.89;77.70;100831.87;3323144;84;21256;-74
2022/10/29 14:39:26;;;;;;;10.80;7.30;;;;;;;15.78;77.82;100824.03;3249475;85;21116;-74
2022/10/29 14:44:29;;;;;;;10.80;6.95;;;;;;;15.66;77.99;100830.13;3315577;84;21523;-74
2022/10/29 14:49:21;;;;;;;14.65;7.40;;;;;;;15.56;78.25;100834.53;3299795;84;21045;-74
2022/10/29 14:54:18;;;;;;;9.88;6.65;;;;;;;15.45;78.41;100838.89;3330523;83;21049;-74
2022/10/29 14:59:18;;;;;;;10.43;7.22;;;;;;;15.35;78.54;100837.18;3277905;83;21501;-74
2022/10/29 15:04:17;;;;;;;15.68;7.42;;;;;;;15.27;78.76;100846.78;3340612;84;20963;-74
2022/10/29 15:09:20;;;;;;;9.83;6.87;;;;;;;15.17;78.86;100856.39;3314291;84;21435;-74
2022/10/29 15:14:46;;;;;;;11.43;7.95;;;;;;;15.07;79.09;100847.64;3308177;84;21041;-74
2022/10/29 15:19:42;;;;;;;13.90;7.58;;;;;;;15.00;79.27;100858.98;3174379;88;21689;-74
2022/10/29 15:24:33;;;;;;;12.50;8.08;;;;;;;14.91;79.46;100844.58;3186634;87;21699;-74
2022/10/29 15:29:28;;;;;;;11.85;8.98;;;;;;;14.86;79.71;100854.63;3168197;87;21325;-74
2022/10/29 15:34:30;;;;;;;12.07;8.85;;;;;;;14.82;79.92;100851.98;3213479;87;21177;-75
2022/10/29 15:39:26;;;;;;;11.65;7.97;;;;;;;14.77;80.05;100866.80;3224814;87;21091;-74
2022/10/29 15:44:33;;;;;;;17.00;9.43;;;;;;;14.71;80.31;100872.03;3190192;87;21027;-74
2022/10/29 15:49:27;;;;;;;13.00;10.03;;;;;;;14.64;80.47;100876.38;3178721;89;21029;-74
2022/10/29 15:54:18;;;;;;;15.35;9.90;;;;;;;14.56;80.67;100872.40;3231105;86;21036;-74
2022/10/29 15:59:13;;;;;;;14.30;9.83;;;;;;;14.53;80.88;100870.20;3215589;86;22024;-74
2022/10/29 16:04:05;;;;;;;12.45;9.95;;;;;;;14.49;81.08;100868.88;3223202;86;21303;-74
2022/10/29 16:08:58;;;;;;;13.90;9.53;;;;;;;14.44;81.22;100858.83;3199197;87;21136;-74
2022/10/29 16:13:51;;;;;;;13.80;10.68;;;;;;;14.42;81.32;100854.03;3162002;88;21053;-74
2022/10/29 16:18:44;;;;;;;15.95;11.85;;;;;;;14.39;81.44;100864.48;3160391;87;21068;-74
2022/10/29 16:23:37;;;;;;;13.75;10.60;;;;;;;14.37;81.60;100865.35;3162573;88;21020;-74
2022/10/29 16:28:29;;;;;;;13.40;10.45;;;;;;;14.35;81.72;100867.96;3273794;85;21519;-74
2022/10/29 16:33:20;;;;;;;12.95;11.10;;;;;;;14.30;81.73;100870.55;3232307;85;21387;-74
2022/10/29 16:38:11;;;;;;;11.68;9.75;;;;;;;14.26;81.83;100866.62;3288552;85;21061;-74
2022/10/29 16:43:03;;;;;;;12.82;10.38;;;;;;;14.22;81.92;100867.48;3305862;85;21052;-74
2022/10/29 16:47:54;;;;;;;13.10;10.65;;;;;;;14.19;81.96;100868.77;3333909;83;21280;-74
2022/10/29 16:52:46;;;;;;;13.80;10.70;;;;;;;14.16;82.06;100859.59;3301223;84;21018;-74
2022/10/29 16:57:38;;;;;;;15.70;10.82;;;;;;;14.10;82.04;100874.37;3239762;84;21458;-74
2022/10/29 17:02:29;;;;;;;15.68;11.30;;;;;;;14.06;82.24;100875.24;3245731;84;21041;-74
2022/10/29 17:07:21;;;;;;;12.33;10.40;;;;;;;14.01;82.36;100876.95;3296560;83;38996;-74
2022/10/29 17:12:13;;;;;;;13.75;12.00;;;;;;;13.98;82.50;100871.70;3274270;84;21449;-74
2022/10/29 17:17:04;;;;;;;14.15;12.13;;;;;;;13.91;82.53;100854.23;3291489;84;20994;-74
2022/10/29 17:21:58;;;;;;;14.07;11.50;;;;;;;13.86;82.57;100858.15;3295711;85;21018;-74
2022/10/29 17:26:50;;;;;;;14.03;11.50;;;;;;;13.82;82.75;100870.73;3267643;84;21019;-74
2022/10/29 17:31:41;;;;;;;15.83;12.28;;;;;;;13.78;82.88;100880.73;3295359;85;22197;-74
2022/10/29 17:36:32;;;;;;;16.10;10.08;;;;;;;13.78;83.08;100879.88;3319352;84;21363;-74
2022/10/29 17:41:23;;;;;;;18.75;11.35;;;;;;;13.80;83.18;100879.44;3314455;84;20939;-74
2022/10/29 17:46:16;;;;;;;13.28;10.45;;;;;;;13.82;83.22;100879.02;3283107;85;20995;-74
2022/10/29 17:51:09;;;;;;;16.07;11.30;;;;;;;13.85;83.19;100877.73;3305072;85;21106;-74
2022/10/29 17:56:00;;;;;;;17.27;11.12;;;;;;;13.88;83.14;100881.69;3329496;84;21407;-74
2022/10/29 18:00:52;;;;;;;14.45;10.18;;;;;;;13.88;83.10;100876.46;3301829;85;22019;-74
2022/10/29 18:05:44;;;;;;;16.00;10.63;;;;;;;13.88;83.05;100865.56;3288248;85;21042;-74
2022/10/29 18:10:35;;;;;;;12.65;10.53;;;;;;;13.90;82.94;100865.58;3307701;84;21027;-74
2022/10/29 18:15:26;;;;;;;16.82;10.95;;;;;;;13.89;82.88;100869.04;3312670;84;21006;-74
2022/10/29 18:20:18;;;;;;;12.70;10.63;;;;;;;13.87;82.79;100881.23;3318800;85;20991;-74
2022/10/29 18:25:11;;;;;;;13.22;10.45;;;;;;;13.86;82.77;100885.59;3342446;83;21314;-75
2022/10/29 18:30:03;;;;;;;16.12;12.25;;;;;;;13.84;82.70;100884.71;3304579;84;22083;-74
2022/10/29 18:34:54;;;;;;;16.12;11.75;;;;;;;13.82;82.70;100885.11;3330606;85;21585;-74
2022/10/29 18:39:45;;;;;;;13.62;11.08;;;;;;;13.84;82.62;100894.27;3261909;85;20926;-74
2022/10/29 18:44:37;;;;;;;14.85;10.60;;;;;;;13.79;82.47;100898.59;3311037;85;20979;-74
2022/10/29 18:49:29;;;;;;;15.53;10.80;;;;;;;13.73;82.51;100905.55;3285067;84;21446;-74
2022/10/29 18:54:20;;;;;;;15.20;10.40;;;;;;;13.68;82.46;100901.13;3276583;85;21050;-74
2022/10/29 18:59:12;;;;;;;13.70;12.30;;;;;;;13.59;82.56;100899.31;3287974;84;21125;-74
2022/10/29 19:04:07;;;;;;;12.40;9.68;;;;;;;13.48;82.61;100907.52;3249278;85;21441;-75
2022/10/29 19:09:01;;;;;;;14.65;10.18;;;;;;;13.38;82.72;100901.77;3257014;84;21721;-74
2022/10/29 19:13:56;;;;;;;15.00;11.60;;;;;;;13.29;82.88;100910.39;3274251;84;21871;-74
2022/10/29 19:18:53;;;;;;;14.58;11.05;;;;;;;13.22;83.05;100916.41;3305637;84;21068;-74
2022/10/29 19:23:47;;;;;;;;;;;;;;;13.13;83.10;100915.45;3278934;85;21042;-74
2022/10/29 19:28:39;;;;;;;13.88;9.98;;;;;;;13.08;83.16;100924.11;3278788;84;20306;-74
2022/10/29 19:33:32;;;;;;;16.65;10.93;;;;;;;12.99;83.19;100931.41;3260365;85;20994;-74
2022/10/29 19:38:24;;;;;;;15.53;11.80;;;;;;;12.92;83.42;100927.84;3308222;85;21666;-73
2022/10/29 19:43:15;;;;;;;14.23;11.53;;;;;;;12.85;83.32;100932.55;3247243;84;21024;-75
2022/10/29 19:48:07;;;;;;;15.05;11.68;;;;;;;12.82;83.66;100927.30;3329702;84;21041;-74
2022/10/29 19:52:58;;;;;;;15.80;11.18;;;;;;;12.79;83.65;100933.80;3294780;84;21009;-74
2022/10/29 19:57:49;;;;;;;15.90;11.45;;;;;;;12.75;83.75;100930.28;3260920;84;21030;-74
2022/10/29 20:02:40;;;;;;;16.23;12.95;;;;;;;12.73;83.81;100929.80;3310538;84;21454;-74
2022/10/29 20:07:32;;;;;;;13.98;11.30;;;;;;;12.70;83.78;100936.31;3280152;85;20971;-74
2022/10/29 20:12:23;;;;;;;13.70;10.58;;;;;;;12.66;83.64;100930.59;3301475;85;21391;-74
2022/10/29 20:17:15;;;;;;;11.30;10.10;;;;;;;12.59;83.80;100920.09;3284805;84;21015;-74
2022/10/29 20:22:07;;;;;;;13.30;9.50;;;;;;;12.50;83.72;100915.18;3300287;84;21464;-74
2022/10/29 20:26:58;;;;;;;13.08;9.85;;;;;;;12.34;83.29;100929.34;3275749;85;21090;-74
2022/10/29 20:31:49;;;;;;;13.48;10.20;;;;;;;12.19;83.61;100919.57;3295159;84;21222;-74
2022/10/29 20:36:44;;;;;;;8.75;7.85;;;;;;;12.08;83.97;100918.99;3292018;84;21549;-74
2022/10/29 20:41:34;;;;;;;13.83;8.78;;;;;;;11.93;82.94;100942.67;3299053;85;21604;-74
2022/10/29 20:46:26;;;;;;;10.75;8.70;;;;;;;11.77;83.16;100938.92;3278739;85;20967;-74
2022/10/29 20:51:17;;;;;;;14.28;9.13;;;;;;;11.65;83.76;100920.49;3306538;85;21497;-74
2022/10/29 20:56:09;;;;;;;13.22;10.60;;;;;;;11.51;83.42;100934.58;3306184;84;21010;-75
2022/10/29 21:01:09;;;;;;;11.10;9.43;;;;;;;11.33;82.64;100930.38;3281224;85;21507;-75
2022/10/29 21:06:07;;;;;;;11.08;8.83;;;;;;;11.24;83.62;100928.48;3258302;84;21510;-74
2022/10/29 21:11:06;;;;;;;13.13;9.25;;;;;;;11.19;83.90;100933.59;3252763;84;21638;-74
2022/10/29 21:16:17;;;;;;;14.10;10.23;;;;;;;11.14;83.61;100938.27;3256973;84;22067;-74
2022/10/29 21:21:11;;;;;;;10.23;8.80;;;;;;;11.12;83.75;100933.47;3274247;84;21236;-74
2022/10/29 21:26:06;;;;;;;10.63;9.08;;;;;;;11.06;83.49;100931.64;3260878;83;20999;-74
2022/10/29 21:30:57;;;;;;;12.80;10.98;;;;;;;11.10;84.31;100920.86;3324123;84;21010;-73
2022/10/29 21:35:52;;;;;;;15.05;10.38;;;;;;;11.12;84.59;100912.66;3264700;84;21420;-73
2022/10/29 21:40:46;;;;;;;13.58;11.35;;;;;;;11.14;84.46;100916.16;3289372;84;22214;-73
2022/10/29 21:45:38;;;;;;;14.80;9.98;;;;;;;11.17;84.84;100914.92;3229963;84;21524;-74
2022/10/29 21:50:30;;;;;;;18.77;11.30;;;;;;;11.19;84.81;100910.61;3292704;84;20979;-74
2022/10/29 21:55:21;;;;;;;14.95;10.82;;;;;;;11.19;84.54;100930.12;3279928;84;21296;-75
2022/10/29 22:00:15;;;;;;;17.62;12.82;;;;;;;11.18;84.53;100928.39;3248077;85;21163;-75
2022/10/29 22:05:07;;;;;;;18.25;12.33;;;;;;;11.14;84.69;100920.95;3298711;84;21020;-74
2022/10/29 22:09:58;;;;;;;15.85;12.37;;;;;;;11.12;85.01;100925.66;3255947;84;21224;-75
2022/10/29 22:15:02;;;;;;;;;;;;;;;;;;;;;
2022/10/29 22:19:46;;;;;;;15.90;13.00;;;;;;;11.15;85.23;100917.92;3295275;84;21042;-74
2022/10/29 22:24:38;;;;;;;17.62;14.98;;;;;;;11.15;85.19;100917.48;3269312;84;21525;-75
2022/10/29 22:29:39;;;;;;;19.73;16.85;;;;;;;11.12;85.34;100910.05;3293717;84;21123;-74
2022/10/29 22:34:31;;;;;;;27.27;17.67;;;;;;;11.08;85.44;100905.65;3309249;84;20985;-74
2022/10/29 22:39:27;;;;;;;20.50;15.88;;;;;;;11.09;85.88;100893.08;3273564;84;21585;-74
2022/10/29 22:44:23;;;;;;;20.10;17.85;;;;;;;11.10;86.07;100877.92;3300309;84;21096;-75
2022/10/29 22:49:14;;;;;;;22.63;20.17;;;;;;;11.13;86.24;100884.50;3276727;85;21521;-75